createdAt,value
2019-06-15T00:00:22.548Z,70.66
2019-06-15T00:01:22.554Z,68.84
2019-06-15T00:02:22.543Z,68.54
2019-06-15T00:03:22.542Z,70.92
2019-06-15T00:04:22.528Z,83.81
2019-06-15T00:05:22.535Z,63.41
2019-06-15T00:06:22.531Z,56.77
2019-06-15T00:07:22.527Z,45.51
2019-06-15T00:08:22.519Z,47.51
2019-06-15T00:09:22.514Z,35.30
2019-06-15T00:10:22.512Z,27.40
2019-06-15T00:11:22.503Z,21.24
2019-06-15T00:12:22.505Z,16.24
2019-06-15T00:13:22.497Z,15.47
2019-06-15T00:14:22.510Z,16.92
2019-06-15T00:15:22.495Z,17.59
2019-06-15T00:16:22.486Z,16.05
2019-06-15T00:17:22.482Z,14.41
2019-06-15T00:18:23.470Z,12.30
2019-06-15T00:19:22.489Z,10.85
2019-06-15T00:20:22.475Z,6.15
2019-06-15T00:21:22.475Z,2.01
2019-06-15T00:22:22.459Z,0.00
2019-06-15T00:23:22.465Z,0.00
2019-06-15T00:24:34.579Z,0.00
2019-06-15T00:25:22.452Z,0.00
2019-06-15T00:26:22.446Z,0.00
2019-06-15T00:27:22.439Z,0.00
2019-06-15T00:28:22.437Z,0.00
2019-06-15T00:29:22.428Z,0.00
2019-06-15T00:30:22.426Z,0.00
2019-06-15T00:31:22.422Z,0.00
2019-06-15T00:32:22.419Z,0.00
2019-06-15T00:33:22.408Z,0.00
2019-06-15T00:34:22.408Z,0.00
2019-06-15T00:35:22.404Z,0.00
2019-06-15T00:36:22.397Z,0.00
2019-06-15T00:37:22.396Z,0.00
2019-06-15T00:38:22.389Z,0.00
2019-06-15T00:39:22.382Z,0.00
2019-06-15T00:40:22.385Z,0.00
2019-06-15T00:41:22.379Z,0.00
2019-06-15T00:42:22.369Z,0.00
2019-06-15T00:43:22.366Z,0.00
2019-06-15T00:44:22.365Z,0.00
2019-06-15T00:45:22.355Z,0.00
2019-06-15T00:46:22.354Z,0.00
2019-06-15T00:47:22.340Z,0.00
2019-06-15T00:48:22.338Z,0.00
2019-06-15T00:49:22.340Z,0.00
2019-06-15T00:50:22.344Z,0.00
2019-06-15T00:51:22.367Z,0.00
2019-06-15T00:52:22.316Z,0.00
2019-06-15T00:53:22.308Z,0.00
2019-06-15T00:54:22.301Z,0.00
2019-06-15T00:55:22.299Z,0.00
2019-06-15T00:56:22.299Z,0.00
2019-06-15T00:57:22.291Z,0.00
2019-06-15T00:58:22.284Z,0.00
2019-06-15T00:59:22.287Z,0.00
2019-06-15T01:00:22.285Z,0.00
2019-06-15T01:01:22.273Z,0.00
2019-06-15T01:02:22.272Z,0.00
2019-06-15T01:03:22.266Z,0.00
2019-06-15T01:04:22.272Z,0.00
2019-06-15T01:05:22.265Z,0.00
2019-06-15T01:06:22.257Z,0.00
2019-06-15T01:07:22.240Z,0.00
2019-06-15T01:08:22.238Z,0.00
2019-06-15T01:09:22.241Z,0.00
2019-06-15T01:10:22.232Z,0.00
2019-06-15T01:11:22.220Z,0.00
2019-06-15T01:12:22.216Z,0.00
2019-06-15T01:13:22.216Z,0.00
2019-06-15T01:14:22.209Z,0.00
2019-06-15T01:15:22.211Z,0.00
2019-06-15T01:16:22.196Z,0.00
2019-06-15T01:17:22.199Z,0.00
2019-06-15T01:18:22.199Z,0.00
2019-06-15T01:19:22.193Z,0.00
2019-06-15T01:20:22.179Z,0.00
2019-06-15T01:21:22.181Z,0.00
2019-06-15T01:22:22.171Z,0.00
2019-06-15T01:23:22.215Z,0.00
2019-06-15T01:24:22.164Z,0.00
2019-06-15T01:25:22.159Z,0.00
2019-06-15T01:26:22.155Z,0.00
2019-06-15T01:27:22.152Z,0.00
2019-06-15T01:28:22.149Z,0.00
2019-06-15T01:29:22.146Z,0.00
2019-06-15T01:30:22.138Z,0.00
2019-06-15T01:31:22.136Z,0.00
2019-06-15T01:32:22.127Z,0.00
2019-06-15T01:33:22.125Z,0.00
2019-06-15T01:34:22.114Z,0.00
2019-06-15T01:35:22.120Z,0.00
2019-06-15T01:36:22.103Z,0.00
2019-06-15T01:37:22.102Z,0.00
2019-06-15T01:38:22.102Z,0.00
2019-06-15T01:39:22.097Z,0.00
2019-06-15T01:40:22.084Z,0.00
2019-06-15T01:41:22.076Z,0.00
2019-06-15T01:42:22.072Z,0.00
2019-06-15T01:43:22.075Z,0.00
2019-06-15T01:44:22.064Z,0.00
2019-06-15T01:45:22.070Z,0.00
2019-06-15T01:46:22.056Z,0.00
2019-06-15T01:47:22.053Z,0.00
2019-06-15T01:48:22.051Z,0.00
2019-06-15T01:49:22.048Z,0.00
2019-06-15T01:50:22.065Z,0.00
2019-06-15T01:51:22.034Z,0.00
2019-06-15T01:52:22.030Z,0.00
2019-06-15T01:53:22.026Z,0.00
2019-06-15T01:54:22.025Z,0.00
2019-06-15T01:55:22.019Z,0.00
2019-06-15T01:56:22.036Z,0.00
2019-06-15T01:57:22.008Z,0.00
2019-06-15T01:58:22.000Z,0.00
2019-06-15T01:59:22.021Z,0.00
2019-06-15T02:00:21.992Z,0.00
2019-06-15T02:01:21.988Z,0.00
2019-06-15T02:02:21.995Z,0.00
2019-06-15T02:03:21.973Z,0.00
2019-06-15T02:04:21.984Z,0.00
2019-06-15T02:05:21.963Z,0.00
2019-06-15T02:06:21.962Z,0.00
2019-06-15T02:07:21.952Z,0.00
2019-06-15T02:08:21.950Z,0.00
2019-06-15T02:09:21.945Z,0.00
2019-06-15T02:10:21.938Z,0.00
2019-06-15T02:11:21.936Z,0.00
2019-06-15T02:12:21.931Z,0.00
2019-06-15T02:13:21.924Z,0.00
2019-06-15T02:14:21.921Z,0.00
2019-06-15T02:15:21.917Z,0.00
2019-06-15T02:16:21.908Z,0.00
2019-06-15T02:17:21.906Z,0.00
2019-06-15T02:18:21.907Z,0.00
2019-06-15T02:19:21.895Z,0.00
2019-06-15T02:20:21.889Z,0.00
2019-06-15T02:21:21.885Z,0.00
2019-06-15T02:22:21.886Z,0.00
2019-06-15T02:23:21.908Z,0.00
2019-06-15T02:24:21.872Z,0.00
2019-06-15T02:25:34.874Z,0.00
2019-06-15T02:26:21.862Z,0.00
2019-06-15T02:27:21.872Z,0.00
2019-06-15T02:28:21.857Z,0.00
2019-06-15T02:29:21.848Z,0.00
2019-06-15T02:30:21.845Z,0.00
2019-06-15T02:31:21.837Z,0.00
2019-06-15T02:32:21.836Z,0.00
2019-06-15T02:33:21.825Z,0.00
2019-06-15T02:34:21.824Z,0.00
2019-06-15T02:35:21.816Z,0.00
2019-06-15T02:36:21.813Z,0.00
2019-06-15T02:37:21.834Z,0.00
2019-06-15T02:38:21.795Z,0.00
2019-06-15T02:39:21.790Z,0.00
2019-06-15T02:40:21.791Z,0.00
2019-06-15T02:41:21.783Z,0.00
2019-06-15T02:42:21.779Z,0.00
2019-06-15T02:43:21.782Z,0.00
2019-06-15T02:44:21.771Z,0.00
2019-06-15T02:45:21.766Z,0.00
2019-06-15T02:46:25.975Z,0.00
2019-06-15T02:47:21.759Z,0.00
2019-06-15T02:48:21.749Z,0.00
2019-06-15T02:49:21.756Z,0.00
2019-06-15T02:50:21.743Z,0.00
2019-06-15T02:51:21.739Z,0.00
2019-06-15T02:52:21.728Z,0.00
2019-06-15T02:53:21.731Z,0.00
2019-06-15T02:54:21.718Z,0.00
2019-06-15T02:55:21.720Z,0.00
2019-06-15T02:56:21.714Z,0.00
2019-06-15T02:57:21.706Z,0.00
2019-06-15T02:58:21.700Z,0.00
2019-06-15T02:59:21.697Z,0.00
2019-06-15T03:00:21.694Z,0.00
2019-06-15T03:01:21.689Z,0.00
2019-06-15T03:02:21.679Z,0.00
2019-06-15T03:03:21.674Z,0.00
2019-06-15T03:04:21.676Z,0.00
2019-06-15T03:05:21.671Z,0.00
2019-06-15T03:06:21.662Z,0.00
2019-06-15T03:07:21.661Z,0.00
2019-06-15T03:08:21.655Z,0.00
2019-06-15T03:09:21.655Z,0.00
2019-06-15T03:10:21.640Z,0.00
2019-06-15T03:11:21.642Z,0.00
2019-06-15T03:12:21.631Z,0.00
2019-06-15T03:13:21.624Z,0.00
2019-06-15T03:14:21.626Z,0.00
2019-06-15T03:15:21.622Z,0.00
2019-06-15T03:16:21.613Z,0.00
2019-06-15T03:17:21.615Z,0.00
2019-06-15T03:18:21.600Z,0.00
2019-06-15T03:19:21.598Z,0.00
2019-06-15T03:20:21.592Z,0.00
2019-06-15T03:21:21.596Z,0.00
2019-06-15T03:22:21.584Z,0.00
2019-06-15T03:23:21.587Z,0.00
2019-06-15T03:24:42.578Z,0.00
2019-06-15T03:25:21.572Z,0.00
2019-06-15T03:26:21.572Z,0.00
2019-06-15T03:27:21.560Z,0.00
2019-06-15T03:28:21.559Z,0.00
2019-06-15T03:29:21.554Z,0.00
2019-06-15T03:30:21.544Z,0.00
2019-06-15T03:31:21.546Z,0.00
2019-06-15T03:32:21.537Z,0.00
2019-06-15T03:33:21.545Z,0.00
2019-06-15T03:34:21.528Z,0.00
2019-06-15T03:35:21.528Z,0.00
2019-06-15T03:36:21.555Z,0.00
2019-06-15T03:37:21.516Z,0.00
2019-06-15T03:38:21.515Z,0.00
2019-06-15T03:39:21.503Z,0.00
2019-06-15T03:40:21.501Z,0.00
2019-06-15T03:41:21.493Z,0.00
2019-06-15T03:42:21.490Z,0.00
2019-06-15T03:43:21.486Z,0.00
2019-06-15T03:44:21.486Z,0.00
2019-06-15T03:45:21.476Z,0.00
2019-06-15T03:46:21.477Z,0.00
2019-06-15T03:47:21.463Z,0.00
2019-06-15T03:48:21.466Z,0.00
2019-06-15T03:49:21.459Z,0.00
2019-06-15T03:50:21.455Z,0.00
2019-06-15T03:51:21.452Z,0.00
2019-06-15T03:52:21.449Z,0.00
2019-06-15T03:53:21.441Z,0.00
2019-06-15T03:54:21.439Z,0.00
2019-06-15T03:55:21.422Z,0.00
2019-06-15T03:56:22.175Z,0.00
2019-06-15T03:57:21.415Z,0.00
2019-06-15T03:58:21.415Z,0.00
2019-06-15T03:59:21.409Z,0.00
2019-06-15T04:00:21.403Z,0.00
2019-06-15T04:01:21.408Z,0.00
2019-06-15T04:02:21.395Z,0.00
2019-06-15T04:03:21.389Z,0.00
2019-06-15T04:04:21.397Z,0.00
2019-06-15T04:05:21.380Z,0.00
2019-06-15T04:06:21.378Z,0.00
2019-06-15T04:07:21.372Z,0.00
2019-06-15T04:08:21.368Z,0.00
2019-06-15T04:09:21.363Z,0.00
2019-06-15T04:10:21.359Z,0.00
2019-06-15T04:11:21.354Z,0.00
2019-06-15T04:12:21.346Z,0.00
2019-06-15T04:13:21.340Z,0.00
2019-06-15T04:14:21.337Z,0.00
2019-06-15T04:15:21.336Z,0.00
2019-06-15T04:16:21.327Z,0.00
2019-06-15T04:17:21.324Z,0.00
2019-06-15T04:18:21.324Z,0.00
2019-06-15T04:19:21.317Z,0.00
2019-06-15T04:20:21.308Z,0.00
2019-06-15T04:21:21.308Z,0.00
2019-06-15T04:22:21.301Z,0.00
2019-06-15T04:23:21.296Z,0.00
2019-06-15T04:24:21.291Z,0.00
2019-06-15T04:25:21.290Z,0.00
2019-06-15T04:26:32.844Z,0.00
2019-06-15T04:27:21.274Z,0.00
2019-06-15T04:28:21.291Z,0.00
2019-06-15T04:29:21.273Z,0.00
2019-06-15T04:30:21.263Z,0.00
2019-06-15T04:31:21.263Z,0.00
2019-06-15T04:32:21.253Z,0.00
2019-06-15T04:33:21.249Z,0.00
2019-06-15T04:34:21.242Z,0.00
2019-06-15T04:35:21.242Z,0.00
2019-06-15T04:36:21.245Z,0.00
2019-06-15T04:37:21.235Z,0.00
2019-06-15T04:38:21.237Z,0.00
2019-06-15T04:39:21.225Z,0.00
2019-06-15T04:40:21.219Z,0.00
2019-06-15T04:41:21.214Z,0.00
2019-06-15T04:42:21.207Z,0.00
2019-06-15T04:43:21.237Z,0.00
2019-06-15T04:44:21.198Z,0.00
2019-06-15T04:45:21.196Z,0.00
2019-06-15T04:46:21.188Z,0.00
2019-06-15T04:47:21.207Z,0.00
2019-06-15T04:48:21.177Z,0.00
2019-06-15T04:49:21.200Z,0.00
2019-06-15T04:50:21.178Z,0.00
2019-06-15T04:51:21.179Z,0.00
2019-06-15T04:52:21.166Z,0.00
2019-06-15T04:53:21.161Z,0.00
2019-06-15T04:54:21.187Z,0.00
2019-06-15T04:55:21.152Z,0.00
2019-06-15T04:56:21.152Z,0.00
2019-06-15T04:57:21.145Z,0.00
2019-06-15T04:58:21.148Z,0.00
2019-06-15T04:59:21.141Z,0.00
2019-06-15T05:00:21.131Z,0.00
2019-06-15T05:01:21.126Z,0.00
2019-06-15T05:02:21.123Z,0.00
2019-06-15T05:03:21.122Z,0.00
2019-06-15T05:04:21.116Z,0.00
2019-06-15T05:05:21.106Z,0.00
2019-06-15T05:06:21.105Z,0.00
2019-06-15T05:07:21.101Z,0.00
2019-06-15T05:08:21.108Z,0.00
2019-06-15T05:09:21.095Z,0.00
2019-06-15T05:10:21.093Z,0.00
2019-06-15T05:11:21.088Z,0.00
2019-06-15T05:12:21.082Z,0.00
2019-06-15T05:13:21.076Z,0.00
2019-06-15T05:14:21.068Z,0.00
2019-06-15T05:15:21.067Z,0.00
2019-06-15T05:16:21.067Z,0.00
2019-06-15T05:17:21.071Z,0.00
2019-06-15T05:18:21.075Z,0.00
2019-06-15T05:19:21.054Z,0.00
2019-06-15T05:20:21.055Z,0.00
2019-06-15T05:21:21.048Z,0.00
2019-06-15T05:22:21.048Z,0.00
2019-06-15T05:23:21.044Z,0.00
2019-06-15T05:24:21.042Z,0.00
2019-06-15T05:25:21.027Z,0.00
2019-06-15T05:26:21.027Z,0.00
2019-06-15T05:27:21.025Z,0.00
2019-06-15T05:28:21.018Z,0.00
2019-06-15T05:29:21.015Z,0.00
2019-06-15T05:30:21.014Z,0.00
2019-06-15T05:31:21.007Z,0.00
2019-06-15T05:32:21.011Z,0.00
2019-06-15T05:33:21.003Z,0.00
2019-06-15T05:34:21.025Z,0.00
2019-06-15T05:35:23.573Z,0.00
2019-06-15T05:36:20.989Z,0.00
2019-06-15T05:37:20.988Z,0.00
2019-06-15T05:38:20.977Z,0.00
2019-06-15T05:39:20.984Z,0.00
2019-06-15T05:40:20.976Z,0.00
2019-06-15T05:41:20.969Z,0.00
2019-06-15T05:42:20.972Z,0.00
2019-06-15T05:43:20.974Z,0.00
2019-06-15T05:44:20.961Z,0.00
2019-06-15T05:45:20.953Z,0.00
2019-06-15T05:46:20.948Z,0.00
2019-06-15T05:47:21.001Z,0.00
2019-06-15T05:48:20.946Z,0.00
2019-06-15T05:49:21.006Z,0.00
2019-06-15T05:50:20.943Z,0.00
2019-06-15T05:51:20.941Z,0.00
2019-06-15T05:52:21.114Z,0.00
2019-06-15T05:53:20.927Z,0.00
2019-06-15T05:54:20.926Z,0.00
2019-06-15T05:55:20.917Z,0.00
2019-06-15T05:56:20.918Z,0.00
2019-06-15T05:57:22.016Z,0.00
2019-06-15T05:58:20.907Z,0.00
2019-06-15T05:59:20.902Z,0.00
2019-06-15T06:00:20.899Z,0.00
2019-06-15T06:01:21.092Z,0.00
2019-06-15T06:02:24.520Z,0.00
2019-06-15T06:03:20.987Z,0.00
2019-06-15T06:04:20.884Z,0.00
2019-06-15T06:05:20.887Z,0.00
2019-06-15T06:06:20.889Z,0.00
2019-06-15T06:07:20.868Z,0.00
2019-06-15T06:08:20.871Z,0.00
2019-06-15T06:09:20.894Z,0.00
2019-06-15T06:10:20.870Z,0.00
2019-06-15T06:11:20.864Z,0.00
2019-06-15T06:12:20.863Z,0.00
2019-06-15T06:13:20.855Z,0.00
2019-06-15T06:14:20.851Z,0.00
2019-06-15T06:15:20.853Z,0.00
2019-06-15T06:16:20.841Z,0.00
2019-06-15T06:17:20.833Z,0.00
2019-06-15T06:18:20.844Z,0.00
2019-06-15T06:19:20.822Z,0.00
2019-06-15T06:20:20.822Z,0.00
2019-06-15T06:21:20.814Z,0.00
2019-06-15T06:22:20.819Z,0.00
2019-06-15T06:23:20.813Z,0.00
2019-06-15T06:24:20.805Z,0.00
2019-06-15T06:25:20.801Z,0.00
2019-06-15T06:26:20.806Z,0.00
2019-06-15T06:27:33.352Z,0.00
2019-06-15T06:28:20.791Z,0.00
2019-06-15T06:29:20.789Z,0.00
2019-06-15T06:30:20.779Z,0.00
2019-06-15T06:31:20.784Z,0.00
2019-06-15T06:32:20.786Z,0.00
2019-06-15T06:33:20.768Z,0.00
2019-06-15T06:34:20.768Z,0.00
2019-06-15T06:35:20.773Z,0.00
2019-06-15T06:36:20.859Z,0.00
2019-06-15T06:37:20.757Z,0.00
2019-06-15T06:38:20.757Z,0.00
2019-06-15T06:39:20.747Z,0.00
2019-06-15T06:40:20.746Z,0.00
2019-06-15T06:41:20.742Z,0.00
2019-06-15T06:42:20.739Z,0.00
2019-06-15T06:43:20.746Z,0.00
2019-06-15T06:44:20.749Z,0.00
2019-06-15T06:45:20.720Z,0.00
2019-06-15T06:46:20.717Z,0.00
2019-06-15T06:47:20.712Z,0.00
2019-06-15T06:48:20.711Z,0.00
2019-06-15T06:49:20.713Z,0.00
2019-06-15T06:50:20.708Z,0.00
2019-06-15T06:51:20.705Z,0.00
2019-06-15T06:52:20.696Z,0.00
2019-06-15T06:53:20.692Z,0.00
2019-06-15T06:54:20.693Z,0.00
2019-06-15T06:55:20.689Z,0.00
2019-06-15T06:56:20.681Z,0.00
2019-06-15T06:57:20.687Z,0.00
2019-06-15T06:58:20.726Z,0.00
2019-06-15T06:59:20.674Z,0.00
2019-06-15T07:00:20.674Z,0.00
2019-06-15T07:01:20.668Z,0.00
2019-06-15T07:02:20.669Z,0.00
2019-06-15T07:03:20.684Z,0.00
2019-06-15T07:04:20.663Z,0.00
2019-06-15T07:05:20.654Z,0.00
2019-06-15T07:06:20.664Z,0.00
2019-06-15T07:07:20.647Z,0.00
2019-06-15T07:08:20.651Z,0.00
2019-06-15T07:09:20.640Z,0.00
2019-06-15T07:10:20.650Z,0.00
2019-06-15T07:11:20.641Z,0.00
2019-06-15T07:12:20.656Z,0.00
2019-06-15T07:13:20.634Z,0.00
2019-06-15T07:14:46.231Z,0.00
2019-06-15T07:15:20.634Z,0.00
2019-06-15T07:16:20.625Z,0.00
2019-06-15T07:17:20.635Z,0.00
2019-06-15T07:18:20.619Z,0.00
2019-06-15T07:19:20.624Z,0.00
2019-06-15T07:20:20.619Z,0.00
2019-06-15T07:21:20.619Z,0.00
2019-06-15T07:22:20.612Z,0.00
2019-06-15T07:23:20.621Z,0.00
2019-06-15T07:24:20.617Z,0.00
2019-06-15T07:25:20.609Z,0.00
2019-06-15T07:26:20.610Z,1.25
2019-06-15T07:27:20.601Z,7.02
2019-06-15T07:28:20.598Z,9.72
2019-06-15T07:29:20.668Z,7.89
2019-06-15T07:30:20.600Z,10.87
2019-06-15T07:31:20.605Z,14.72
2019-06-15T07:32:20.591Z,10.29
2019-06-15T07:33:20.592Z,8.95
2019-06-15T07:34:20.591Z,7.60
2019-06-15T07:35:20.605Z,9.91
2019-06-15T07:36:20.632Z,16.83
2019-06-15T07:39:06.347Z,9.43
2019-06-15T07:39:52.785Z,7.21
2019-06-15T07:40:52.851Z,11.06
2019-06-15T07:41:52.743Z,10.86
2019-06-15T07:45:31.206Z,23.18
2019-06-15T07:46:27.688Z,18.75
2019-06-15T07:48:44.241Z,15.39
2019-06-15T07:49:17.684Z,19.04
2019-06-15T07:51:14.787Z,14.14
2019-06-15T07:53:45.859Z,7.89
2019-06-15T07:57:17.432Z,14.51
2019-06-15T07:57:57.239Z,20.38
2019-06-15T08:01:37.164Z,12.98
2019-06-15T08:02:37.190Z,13.36
2019-06-15T08:04:20.634Z,16.82
2019-06-15T08:05:26.711Z,16.24
2019-06-15T08:07:39.651Z,12.01
